CST,Max TemperatureF,Mean TemperatureF,Min TemperatureF,Max Dew PointF,MeanDew PointF,Min DewpointF,Max Humidity, Mean Humidity, Min Humidity, Max Sea Level PressureIn, Mean Sea Level PressureIn, Min Sea Level PressureIn, Max VisibilityMiles, Mean VisibilityMiles, Min VisibilityMiles, Max Wind SpeedMPH, Mean Wind SpeedMPH, Max Gust SpeedMPH,PrecipitationIn, CloudCover, Events, WindDirDegrees
2013-2-1,51,42,33,29,22,14,69,49,29,30.47,30.36,30.26,10,10,10,14,7,21,0.00,0,,85
2013-2-2,64,48,31,41,34,26,85,62,39,30.29,30.23,30.19,10,10,10,15,4,17,0.00,1,,317
2013-2-3,65,50,35,34,31,26,89,57,24,30.31,30.21,30.06,10,10,10,12,5,15,0.00,0,,186
2013-2-4,56,52,47,52,45,29,100,69,38,30.05,29.95,29.87,10,9,6,14,6,17,0.04,7,Rain,141
2013-2-5,67,57,47,54,51,48,100,76,52,30.05,29.99,29.93,10,4,0,7,2,9,0.00,5,Fog,62
2013-2-6,55,50,44,54,50,45,100,97,93,30.13,30.05,29.99,6,2,0,9,4,16,0.09,7,Fog-Rain,83
2013-2-7,64,58,52,57,54,52,100,87,73,29.99,29.94,29.87,10,4,0,12,4,15,T,8,Fog-Rain,177
2013-2-8,61,52,42,55,44,34,100,68,36,30.23,30.13,29.96,10,8,3,16,7,22,0.00,3,,22
2013-2-9,52,45,37,47,40,34,93,82,71,30.25,30.11,29.91,10,7,2,14,7,21,0.11,7,Rain,98
2013-2-10,68,60,51,61,47,25,100,60,20,30.01,29.84,29.77,10,8,2,28,9,36,0.26,4,Rain,224
2013-2-11,56,50,44,43,36,30,80,59,38,30.18,30.12,30.03,10,10,10,14,4,20,0.01,4,Rain,62
2013-2-12,46,44,42,43,42,39,100,88,76,30.11,29.92,29.85,10,6,2,16,7,23,0.67,7,Rain,43
2013-2-13,51,45,38,43,38,35,100,77,54,30.12,30.02,29.93,10,9,2,15,8,18,0.00,4,,288
2013-2-14,64,49,33,38,35,34,100,67,34,30.14,30.08,30.03,10,10,6,12,5,17,0.00,0,Rain,220
2013-2-15,54,45,35,41,28,16,76,50,24,30.34,30.24,30.09,10,10,10,18,9,22,0.03,4,Rain,336
2013-2-16,50,42,33,27,17,7,70,44,18,30.37,30.31,30.22,10,10,10,20,7,26,0.00,1,,294
2013-2-17,69,53,36,36,27,15,54,39,23,30.21,30.11,30.00,10,10,10,22,10,29,0.00,0,,176
2013-2-18,70,60,50,58,46,31,77,59,41,30.07,29.88,29.70,10,10,9,28,13,39,0.02,5,Rain-Thunderstorm,206
2013-2-19,58,46,34,33,26,22,70,47,24,30.33,30.23,30.10,10,10,7,14,4,20,0.00,0,,33
2013-2-20,45,39,33,34,30,25,96,71,45,30.32,30.16,30.02,10,9,4,17,8,23,0.26,7,Rain-Thunderstorm,72
2013-2-21,42,38,34,41,38,29,100,88,75,29.98,29.83,29.71,10,4,0,14,7,23,0.18,8,Fog-Rain,40
2013-2-22,51,43,35,40,37,34,100,78,56,30.11,30.03,29.94,10,7,0,12,4,15,0.00,3,Fog,334
2013-2-23,53,42,30,38,32,27,92,69,46,30.09,30.02,29.95,10,10,10,12,3,16,0.00,0,,47
2013-2-24,64,48,32,37,35,33,100,68,36,30.04,29.92,29.77,10,9,6,13,5,20,0.00,0,,96
2013-2-25,56,51,45,54,46,32,100,83,66,29.74,29.50,29.40,10,6,1,23,8,33,0.11,7,Rain-Thunderstorm,25
2013-2-26,53,45,36,37,34,32,92,71,50,29.92,29.70,29.50,10,10,10,26,14,39,T,5,,272
2013-2-27,56,43,30,35,31,27,100,68,35,30.13,30.02,29.91,10,9,4,23,8,30,0.00,0,,304
2013-2-28,55,45,34,31,28,26,75,57,38,30.21,30.16,30.12,10,10,10,18,9,24,0.00,0,,300